Terminal Aerodrome Forecast
Issued by NWS

Home | Current Version | Previous Version | Text Only | Print | Product List | Glossary On
Versions: 1 2 3 4 5 6 7 8 9 10 11 12 13 14 15 16
000
FTUS43 KPAH 211100
TAFCGI
TAF
KCGI 211130Z 2112/2212 22006KT P6SM SKC
      TEMPO 2112/2114 00000KT FEW004 SCT130
     FM211400 21007KT P6SM SKC
     FM220100 20002KT P6SM SKC
      TEMPO 2209/2212 5SM BR=

USA.gov is the U.S. government's official web portal to all federal, state and local government web resources and services.